createdAt,value
2023-02-03T00:02:04.353Z,8.80
2023-02-03T00:06:13.116Z,8.80
2023-02-03T00:10:21.751Z,8.90
2023-02-03T00:14:30.511Z,8.90
2023-02-03T00:18:39.142Z,8.80
2023-02-03T00:22:47.888Z,8.90
2023-02-03T00:26:56.429Z,8.80
2023-02-03T00:31:05.255Z,8.80
2023-02-03T00:35:13.827Z,8.90
2023-02-03T00:39:22.647Z,8.90
2023-02-03T00:43:32.720Z,8.90
2023-02-03T00:47:41.284Z,8.90
2023-02-03T00:51:50.280Z,8.90
2023-02-03T00:55:58.971Z,9.10
2023-02-03T01:00:08.648Z,9.00
2023-02-03T01:04:17.263Z,9.20
2023-02-03T01:08:26.308Z,9.20
2023-02-03T01:12:34.866Z,9.10
2023-02-03T01:16:43.521Z,9.30
2023-02-03T01:20:52.069Z,9.30
2023-02-03T01:25:00.646Z,9.20
2023-02-03T01:29:09.324Z,9.20
2023-02-03T01:33:17.898Z,9.20
2023-02-03T01:37:26.526Z,9.00
2023-02-03T01:41:37.526Z,9.20
2023-02-03T01:45:47.386Z,9.20
2023-02-03T01:50:13.903Z,9.30
2023-02-03T01:54:26.440Z,9.20
2023-02-03T01:58:39.228Z,9.30
2023-02-03T02:02:51.962Z,9.30
2023-02-03T02:07:00.780Z,9.20
2023-02-03T02:11:09.571Z,9.30
2023-02-03T02:15:18.541Z,9.20
2023-02-03T02:19:38.959Z,9.20
2023-02-03T02:23:53.656Z,9.30
2023-02-03T02:28:16.888Z,9.10
2023-02-03T02:37:01.732Z,9.10
2023-02-03T02:41:13.379Z,9.10
2023-02-03T02:45:27.970Z,9.10
2023-02-03T02:49:39.619Z,9.00
2023-02-03T02:53:51.244Z,8.90
2023-02-03T02:58:02.859Z,9.00
2023-02-03T03:02:12.385Z,8.90
2023-02-03T03:06:26.970Z,9.00
2023-02-03T03:10:38.068Z,9.20
2023-02-03T03:14:49.702Z,9.10
2023-02-03T03:19:01.349Z,9.20
2023-02-03T03:23:12.972Z,9.10
2023-02-03T03:27:26.923Z,9.10
2023-02-03T03:31:35.823Z,9.10
2023-02-03T03:35:47.513Z,8.90
2023-02-03T03:40:18.291Z,8.90
2023-02-03T03:44:29.935Z,9.00
2023-02-03T03:48:41.586Z,9.00
2023-02-03T03:52:52.811Z,9.10
2023-02-03T03:57:16.400Z,9.00
2023-02-03T04:01:25.476Z,9.00
2023-02-03T04:05:35.250Z,9.10
2023-02-03T04:09:43.897Z,9.00
2023-02-03T04:13:52.421Z,9.10
2023-02-03T04:18:03.864Z,9.20
2023-02-03T04:22:12.419Z,9.00
2023-02-03T04:26:20.994Z,9.00
2023-02-03T04:30:29.910Z,9.20
2023-02-03T04:34:38.594Z,9.00
2023-02-03T04:38:48.936Z,9.30
2023-02-03T04:42:57.489Z,9.40
2023-02-03T04:47:06.118Z,9.10
2023-02-03T04:51:16.634Z,9.00
2023-02-03T04:55:24.878Z,9.30
2023-02-03T04:59:33.984Z,9.20
2023-02-03T05:03:42.558Z,9.10
2023-02-03T05:07:51.105Z,9.10
2023-02-03T05:12:01.377Z,9.10
2023-02-03T05:16:12.949Z,9.10
2023-02-03T05:20:22.255Z,9.00
2023-02-03T05:24:30.897Z,9.20
2023-02-03T05:28:39.631Z,9.20
2023-02-03T05:32:49.258Z,9.10
2023-02-03T05:36:57.885Z,9.20
2023-02-03T05:41:23.907Z,9.30
2023-02-03T05:45:35.489Z,9.40
2023-02-03T05:49:44.037Z,9.30
2023-02-03T05:53:53.776Z,9.20
2023-02-03T05:58:02.574Z,9.40
2023-02-03T06:02:11.146Z,9.30
2023-02-03T06:06:19.691Z,9.20
2023-02-03T06:10:28.912Z,9.30
2023-02-03T06:14:37.920Z,9.20
2023-02-03T06:18:46.493Z,9.40
2023-02-03T06:22:55.037Z,9.30
2023-02-03T06:27:03.863Z,9.20
2023-02-03T06:31:12.498Z,9.20
2023-02-03T06:35:21.168Z,9.30
2023-02-03T06:39:29.743Z,9.30
2023-02-03T06:43:38.307Z,9.30
2023-02-03T06:47:47.119Z,9.20
2023-02-03T06:51:55.691Z,9.30
2023-02-03T06:56:04.424Z,9.30
2023-02-03T07:00:15.573Z,9.40
2023-02-03T07:04:24.510Z,9.30
2023-02-03T07:08:33.068Z,9.50
2023-02-03T07:12:41.627Z,9.50
2023-02-03T07:16:50.190Z,9.50
2023-02-03T07:21:02.517Z,9.40
2023-02-03T07:25:11.043Z,9.40
2023-02-03T07:29:21.175Z,9.40
2023-02-03T07:33:30.169Z,9.60
2023-02-03T07:37:38.690Z,9.50
2023-02-03T07:41:48.809Z,9.40
2023-02-03T07:46:09.352Z,9.40
2023-02-03T07:50:18.465Z,9.50
2023-02-03T07:54:27.094Z,9.50
2023-02-03T07:58:35.654Z,9.50
2023-02-03T08:02:44.855Z,9.50
2023-02-03T08:06:55.246Z,9.60
2023-02-03T08:11:04.017Z,9.40
2023-02-03T08:15:13.238Z,9.40
2023-02-03T08:19:23.079Z,9.40
2023-02-03T08:23:32.457Z,9.50
2023-02-03T08:27:41.614Z,9.50
2023-02-03T08:31:50.334Z,9.50
2023-02-03T08:36:00.619Z,9.50
2023-02-03T08:40:11.752Z,9.40
2023-02-03T08:44:20.399Z,9.40
2023-02-03T08:48:28.960Z,9.50
2023-02-03T08:52:39.127Z,9.50
2023-02-03T08:56:47.926Z,9.80
2023-02-03T09:00:56.508Z,9.80
2023-02-03T09:05:05.952Z,9.80
2023-02-03T09:09:15.312Z,9.70
2023-02-03T09:13:27.592Z,9.80
2023-02-03T09:17:36.150Z,9.80
2023-02-03T09:21:46.191Z,9.90
2023-02-03T09:25:56.015Z,9.80
2023-02-03T09:30:06.380Z,9.90
2023-02-03T09:34:16.523Z,10.00
2023-02-03T09:38:26.342Z,9.90
2023-02-03T09:42:52.691Z,9.80
2023-02-03T09:47:04.656Z,10.00
2023-02-03T09:51:26.254Z,10.00
2023-02-03T09:55:43.855Z,10.00
2023-02-03T09:59:54.678Z,10.00
2023-02-03T10:04:18.961Z,10.00
2023-02-03T10:08:30.694Z,10.00
2023-02-03T10:13:07.590Z,10.10
2023-02-03T10:17:22.136Z,10.10
2023-02-03T10:21:36.652Z,10.00
2023-02-03T10:25:49.636Z,10.20
2023-02-03T10:30:24.379Z,10.20
2023-02-03T10:34:33.038Z,10.30
2023-02-03T10:39:19.016Z,10.30
2023-02-03T10:43:43.975Z,10.30
2023-02-03T10:47:55.604Z,10.30
2023-02-03T10:52:04.838Z,10.30
2023-02-03T10:56:18.128Z,10.40
2023-02-03T11:00:36.111Z,10.40
2023-02-03T11:04:44.757Z,10.40
2023-02-03T11:08:53.970Z,10.40
2023-02-03T11:13:22.698Z,10.30
2023-02-03T11:17:32.987Z,10.30
2023-02-03T11:21:44.554Z,10.30
2023-02-03T11:25:53.372Z,10.30
2023-02-03T11:30:23.701Z,10.30
2023-02-03T11:34:39.240Z,10.30
2023-02-03T11:38:47.901Z,10.40
2023-02-03T11:42:59.551Z,10.40
2023-02-03T11:47:13.809Z,10.50
2023-02-03T11:51:34.803Z,10.50
2023-02-03T11:56:08.526Z,10.50
2023-02-03T12:00:33.482Z,10.50
2023-02-03T12:05:01.507Z,10.60
2023-02-03T12:09:32.091Z,10.70
2023-02-03T12:13:43.743Z,10.70
2023-02-03T12:18:03.878Z,10.70
2023-02-03T12:22:18.494Z,10.70
2023-02-03T12:26:30.783Z,10.80
2023-02-03T12:30:48.479Z,10.80
2023-02-03T12:35:03.102Z,10.90
2023-02-03T12:39:17.483Z,10.80
2023-02-03T12:43:50.688Z,10.90
2023-02-03T12:48:16.981Z,10.90
2023-02-03T12:52:43.713Z,10.90
2023-02-03T12:56:58.115Z,10.90
2023-02-03T13:01:39.579Z,10.90
2023-02-03T13:06:00.902Z,10.90
2023-02-03T13:10:39.326Z,10.90
2023-02-03T13:14:59.578Z,10.80
2023-02-03T13:19:13.993Z,10.90
2023-02-03T13:23:23.766Z,10.90
2023-02-03T13:27:59.337Z,10.80
2023-02-03T13:32:22.886Z,10.90
2023-02-03T13:36:55.583Z,10.90
2023-02-03T13:41:14.022Z,10.90
2023-02-03T13:45:31.192Z,10.90
2023-02-03T13:49:40.188Z,11.00
2023-02-03T13:53:51.860Z,10.90
2023-02-03T13:58:00.781Z,10.90
2023-02-03T14:02:21.356Z,10.90
2023-02-03T14:06:42.977Z,10.90
2023-02-03T14:11:10.664Z,11.00
2023-02-03T14:15:32.024Z,11.00
2023-02-03T14:19:52.370Z,10.90
2023-02-03T14:24:06.891Z,10.60
2023-02-03T14:28:18.668Z,10.40
2023-02-03T14:32:30.324Z,10.20
2023-02-03T14:40:58.341Z,9.70
2023-02-03T14:45:32.300Z,9.70
2023-02-03T14:50:09.565Z,9.70
2023-02-03T14:54:30.010Z,9.60
2023-02-03T14:58:50.680Z,9.60
2023-02-03T15:03:11.469Z,9.70
2023-02-03T15:07:38.524Z,9.80
2023-02-03T15:11:47.903Z,9.80
2023-02-03T15:15:59.579Z,9.80
2023-02-03T15:20:22.822Z,9.90
2023-02-03T15:24:34.459Z,10.00
2023-02-03T15:28:43.098Z,9.90
2023-02-03T15:33:15.791Z,9.80
2023-02-03T15:37:32.993Z,9.90
2023-02-03T15:41:41.883Z,9.90
2023-02-03T15:46:13.155Z,9.90
2023-02-03T15:50:45.552Z,9.90
2023-02-03T15:54:57.453Z,9.90
2023-02-03T15:59:08.816Z,9.90
2023-02-03T16:03:21.352Z,9.80
2023-02-03T16:07:31.355Z,9.90
2023-02-03T16:11:41.634Z,9.80
2023-02-03T16:16:08.407Z,9.90
2023-02-03T16:20:20.132Z,9.70
2023-02-03T16:24:34.563Z,9.90
2023-02-03T16:29:01.391Z,9.70
2023-02-03T16:33:30.883Z,9.60
2023-02-03T16:38:02.725Z,9.70
2023-02-03T16:42:37.077Z,9.70
2023-02-03T16:47:05.538Z,9.70
2023-02-03T16:51:16.925Z,9.80
2023-02-03T16:55:25.563Z,9.80
2023-02-03T16:59:34.732Z,9.60
2023-02-03T17:03:44.378Z,9.50
2023-02-03T17:07:52.958Z,9.60
2023-02-03T17:12:02.210Z,9.60
2023-02-03T17:16:13.894Z,9.60
2023-02-03T17:20:22.615Z,9.60
2023-02-03T17:24:31.163Z,9.60
2023-02-03T17:28:42.956Z,9.50
2023-02-03T17:32:51.564Z,9.50
2023-02-03T17:37:00.141Z,9.50
2023-02-03T17:54:35.116Z,9.40
2023-02-03T17:58:44.347Z,9.30
2023-02-03T18:02:53.257Z,9.20
2023-02-03T18:07:01.993Z,9.30
2023-02-03T18:11:11.188Z,9.20
2023-02-03T18:15:19.806Z,9.20
2023-02-03T18:19:28.391Z,9.10
2023-02-03T18:23:38.075Z,9.10
2023-02-03T18:27:46.742Z,9.10
2023-02-03T18:32:06.773Z,9.10
2023-02-03T18:36:22.631Z,9.00
2023-02-03T18:40:48.427Z,9.00
2023-02-03T18:45:04.690Z,9.00
2023-02-03T18:49:28.207Z,9.00
2023-02-03T18:58:39.087Z,9.00
2023-02-03T19:03:06.290Z,9.00
2023-02-03T19:07:20.653Z,8.90
2023-02-03T19:11:37.642Z,9.00
2023-02-03T19:15:58.824Z,8.90
2023-02-03T19:20:19.814Z,8.90
2023-02-03T19:24:31.976Z,9.00
2023-02-03T19:29:03.110Z,9.00
2023-02-03T19:33:11.755Z,9.00
2023-02-03T19:37:20.365Z,9.00
2023-02-03T19:41:30.802Z,8.90
2023-02-03T19:45:39.619Z,8.90
2023-02-03T19:49:48.174Z,9.00
2023-02-03T19:53:58.365Z,8.90
2023-02-03T19:58:06.932Z,9.00
2023-02-03T20:02:15.889Z,9.00
2023-02-03T20:06:25.540Z,9.00
2023-02-03T20:10:34.233Z,9.00
2023-02-03T20:14:42.793Z,9.00
2023-02-03T20:18:51.353Z,9.00
2023-02-03T20:23:00.312Z,9.10
2023-02-03T20:27:08.928Z,9.00
2023-02-03T20:31:17.562Z,9.00
2023-02-03T20:35:26.389Z,9.00
2023-02-03T20:39:35.171Z,9.10
2023-02-03T20:43:43.716Z,9.00
2023-02-03T20:47:52.880Z,9.00
2023-02-03T20:52:01.419Z,8.90
2023-02-03T20:56:18.466Z,9.00
2023-02-03T21:00:28.030Z,8.80
2023-02-03T21:04:54.442Z,8.90
2023-02-03T21:09:16.908Z,8.80
2023-02-03T21:13:30.669Z,8.70
2023-02-03T21:17:39.281Z,9.00
2023-02-03T21:21:49.484Z,8.90
2023-02-03T21:25:58.078Z,8.80
2023-02-03T21:30:26.334Z,8.90
2023-02-03T21:34:37.490Z,8.90
2023-02-03T21:38:49.248Z,8.90
2023-02-03T21:42:58.738Z,8.90
2023-02-03T21:47:13.082Z,8.90
2023-02-03T21:51:28.550Z,8.90
2023-02-03T21:55:42.358Z,8.80
2023-02-03T21:59:50.912Z,8.90
2023-02-03T22:04:01.408Z,8.80
2023-02-03T22:08:22.098Z,8.80
2023-02-03T22:12:30.645Z,8.90
2023-02-03T22:16:39.253Z,8.80
2023-02-03T22:20:47.939Z,8.80
2023-02-03T22:24:56.499Z,8.90
2023-02-03T22:29:05.527Z,8.90
2023-02-03T22:33:14.105Z,8.90
2023-02-03T22:37:22.665Z,8.80
2023-02-03T22:41:31.229Z,8.80
2023-02-03T22:45:39.804Z,8.80
2023-02-03T22:49:48.331Z,8.80
2023-02-03T22:53:56.885Z,8.80
2023-02-03T22:58:05.993Z,8.90
2023-02-03T23:02:14.603Z,8.80
2023-02-03T23:06:23.175Z,8.70
2023-02-03T23:10:32.194Z,8.70
2023-02-03T23:14:40.990Z,8.70
2023-02-03T23:18:49.564Z,8.60
2023-02-03T23:22:58.125Z,8.80
2023-02-03T23:27:07.353Z,8.60
2023-02-03T23:31:16.567Z,8.60
2023-02-03T23:35:42.863Z,8.50
2023-02-03T23:39:51.765Z,8.40
2023-02-03T23:44:03.439Z,8.40
2023-02-03T23:48:17.949Z,8.40
2023-02-03T23:52:26.527Z,8.30
2023-02-03T23:56:35.121Z,8.40
